sensor_id;sensor_type;location;lat;lon;timestamp;pressure;altitude;pressure_sealevel;temperature;humidity
77311;BME280;66371;52.714;5.074;2023-06-14T00:00:07;101745.72;;;17.29;66.15
77311;BME280;66371;52.714;5.074;2023-06-14T00:02:33;101750.84;;;17.24;66.47
77311;BME280;66371;52.714;5.074;2023-06-14T00:04:58;101758.94;;;17.24;65.58
77311;BME280;66371;52.714;5.074;2023-06-14T00:07:37;101753.72;;;17.22;65.27
77311;BME280;66371;52.714;5.074;2023-06-14T00:10:03;101754.22;;;17.26;63.85
77311;BME280;66371;52.714;5.074;2023-06-14T00:12:30;101758.44;;;17.20;64.29
77311;BME280;66371;52.714;5.074;2023-06-14T00:14:56;101759.66;;;17.18;63.50
77311;BME280;66371;52.714;5.074;2023-06-14T00:17:22;101758.00;;;17.17;63.38
77311;BME280;66371;52.714;5.074;2023-06-14T00:19:47;101762.91;;;17.13;64.01
77311;BME280;66371;52.714;5.074;2023-06-14T00:22:13;101758.22;;;17.07;63.40
77311;BME280;66371;52.714;5.074;2023-06-14T00:24:38;101753.72;;;17.00;64.41
77311;BME280;66371;52.714;5.074;2023-06-14T00:27:04;101759.53;;;16.89;64.80
77311;BME280;66371;52.714;5.074;2023-06-14T00:29:30;101756.69;;;16.82;65.55
77311;BME280;66371;52.714;5.074;2023-06-14T00:31:55;101760.59;;;16.80;65.29
77311;BME280;66371;52.714;5.074;2023-06-14T00:34:21;101761.81;;;16.77;65.15
77311;BME280;66371;52.714;5.074;2023-06-14T00:36:49;101767.06;;;16.71;65.81
77311;BME280;66371;52.714;5.074;2023-06-14T00:39:14;101760.72;;;16.64;65.84
77311;BME280;66371;52.714;5.074;2023-06-14T00:41:40;101764.28;;;16.56;66.25
77311;BME280;66371;52.714;5.074;2023-06-14T00:44:05;101766.50;;;16.53;66.32
77311;BME280;66371;52.714;5.074;2023-06-14T00:46:31;101762.94;;;16.52;66.33
77311;BME280;66371;52.714;5.074;2023-06-14T00:48:58;101763.81;;;16.53;66.18
77311;BME280;66371;52.714;5.074;2023-06-14T00:51:25;101768.34;;;16.52;66.07
77311;BME280;66371;52.714;5.074;2023-06-14T00:53:51;101764.34;;;16.48;64.85
77311;BME280;66371;52.714;5.074;2023-06-14T00:56:17;101760.09;;;16.46;65.27
77311;BME280;66371;52.714;5.074;2023-06-14T00:58:45;101770.03;;;16.53;65.32
77311;BME280;66371;52.714;5.074;2023-06-14T01:03:46;101774.94;;;16.42;65.92
77311;BME280;66371;52.714;5.074;2023-06-14T01:06:27;101766.06;;;16.33;66.30
77311;BME280;66371;52.714;5.074;2023-06-14T01:12:04;101771.31;;;16.19;67.00
77311;BME280;66371;52.714;5.074;2023-06-14T01:14:33;101771.03;;;16.06;67.17
77311;BME280;66371;52.714;5.074;2023-06-14T01:16:59;101767.50;;;15.97;68.07
77311;BME280;66371;52.714;5.074;2023-06-14T01:19:26;101772.59;;;15.92;68.14
77311;BME280;66371;52.714;5.074;2023-06-14T01:21:55;101763.84;;;15.90;67.87
77311;BME280;66371;52.714;5.074;2023-06-14T01:24:20;101775.81;;;15.88;67.81
77311;BME280;66371;52.714;5.074;2023-06-14T01:26:53;101770.94;;;15.83;67.96
77311;BME280;66371;52.714;5.074;2023-06-14T01:29:22;101770.09;;;15.82;67.98
77311;BME280;66371;52.714;5.074;2023-06-14T01:31:49;101767.91;;;15.78;67.19
77311;BME280;66371;52.714;5.074;2023-06-14T01:34:15;101767.41;;;15.74;68.03
77311;BME280;66371;52.714;5.074;2023-06-14T01:36:43;101776.16;;;15.68;68.12
77311;BME280;66371;52.714;5.074;2023-06-14T01:39:12;101767.22;;;15.68;68.09
77311;BME280;66371;52.714;5.074;2023-06-14T01:41:39;101765.22;;;15.70;68.06
77311;BME280;66371;52.714;5.074;2023-06-14T01:44:05;101765.91;;;15.64;68.33
77311;BME280;66371;52.714;5.074;2023-06-14T01:46:31;101770.44;;;15.63;68.08
77311;BME280;66371;52.714;5.074;2023-06-14T01:48:57;101776.84;;;15.62;68.05
77311;BME280;66371;52.714;5.074;2023-06-14T01:51:24;101766.91;;;15.63;67.93
77311;BME280;66371;52.714;5.074;2023-06-14T01:53:49;101765.72;;;15.57;68.36
77311;BME280;66371;52.714;5.074;2023-06-14T01:56:14;101770.47;;;15.55;68.72
77311;BME280;66371;52.714;5.074;2023-06-14T01:58:40;101768.44;;;15.49;68.81
77311;BME280;66371;52.714;5.074;2023-06-14T02:01:13;101754.78;;;15.35;69.30
77311;BME280;66371;52.714;5.074;2023-06-14T02:03:52;101766.41;;;15.35;69.53
77311;BME280;66371;52.714;5.074;2023-06-14T02:06:26;101758.31;;;15.27;69.77
77311;BME280;66371;52.714;5.074;2023-06-14T02:09:05;101767.38;;;15.34;69.28
77311;BME280;66371;52.714;5.074;2023-06-14T02:11:38;101753.44;;;15.31;68.98
77311;BME280;66371;52.714;5.074;2023-06-14T02:14:16;101768.63;;;15.40;69.12
77311;BME280;66371;52.714;5.074;2023-06-14T02:16:48;101777.03;;;15.45;68.60
77311;BME280;66371;52.714;5.074;2023-06-14T02:19:20;101745.34;;;15.23;69.53
77311;BME280;66371;52.714;5.074;2023-06-14T02:21:48;101777.69;;;15.39;69.24
77311;BME280;66371;52.714;5.074;2023-06-14T02:24:15;101752.91;;;15.27;69.22
77311;BME280;66371;52.714;5.074;2023-06-14T02:26:44;101754.44;;;15.22;69.71
77311;BME280;66371;52.714;5.074;2023-06-14T02:29:13;101748.38;;;15.12;69.89
77311;BME280;66371;52.714;5.074;2023-06-14T02:31:40;101782.06;;;15.16;70.56
77311;BME280;66371;52.714;5.074;2023-06-14T02:34:12;101742.63;;;14.91;70.97
77311;BME280;66371;52.714;5.074;2023-06-14T02:36:39;101755.94;;;15.00;70.59
77311;BME280;66371;52.714;5.074;2023-06-14T02:39:13;101753.41;;;14.99;70.72
77311;BME280;66371;52.714;5.074;2023-06-14T02:41:39;101783.03;;;15.15;70.16
77311;BME280;66371;52.714;5.074;2023-06-14T02:44:06;101757.78;;;15.00;70.29
77311;BME280;66371;52.714;5.074;2023-06-14T02:46:33;101749.03;;;14.90;70.66
77311;BME280;66371;52.714;5.074;2023-06-14T02:49:08;101751.38;;;14.85;70.82
77311;BME280;66371;52.714;5.074;2023-06-14T02:51:40;101774.44;;;14.95;71.36
77311;BME280;66371;52.714;5.074;2023-06-14T02:54:18;101764.13;;;14.83;71.89
77311;BME280;66371;52.714;5.074;2023-06-14T02:56:45;101745.97;;;14.69;71.79
77311;BME280;66371;52.714;5.074;2023-06-14T02:59:10;101782.31;;;14.89;71.73
77311;BME280;66371;52.714;5.074;2023-06-14T03:02:34;101778.28;;;14.85;72.29
77311;BME280;66371;52.714;5.074;2023-06-14T03:04:44;101780.28;;;14.83;72.29
77311;BME280;66371;52.714;5.074;2023-06-14T03:07:16;101764.63;;;14.70;72.57
77311;BME280;66371;52.714;5.074;2023-06-14T03:09:45;101766.81;;;14.67;72.87
77311;BME280;66371;52.714;5.074;2023-06-14T03:12:12;101760.38;;;14.52;73.45
77311;BME280;66371;52.714;5.074;2023-06-14T03:14:40;101759.53;;;14.51;73.32
77311;BME280;66371;52.714;5.074;2023-06-14T03:17:17;101765.06;;;14.50;73.91
77311;BME280;66371;52.714;5.074;2023-06-14T03:19:46;101771.09;;;14.44;74.23
77311;BME280;66371;52.714;5.074;2023-06-14T03:22:15;101796.69;;;14.56;74.29
77311;BME280;66371;52.714;5.074;2023-06-14T03:24:41;101777.50;;;14.43;74.63
77311;BME280;66371;52.714;5.074;2023-06-14T03:27:11;101774.97;;;14.41;74.78
77311;BME280;66371;52.714;5.074;2023-06-14T03:29:39;101769.22;;;14.36;75.11
77311;BME280;66371;52.714;5.074;2023-06-14T03:32:10;101803.44;;;14.52;74.68
77311;BME280;66371;52.714;5.074;2023-06-14T03:34:36;101797.56;;;14.56;74.89
77311;BME280;66371;52.714;5.074;2023-06-14T03:37:06;101808.53;;;14.63;74.76
77311;BME280;66371;52.714;5.074;2023-06-14T03:39:38;101789.97;;;14.60;74.06
77311;BME280;66371;52.714;5.074;2023-06-14T03:42:25;101792.38;;;14.71;74.26
77311;BME280;66371;52.714;5.074;2023-06-14T03:44:51;101800.66;;;14.77;73.74
77311;BME280;66371;52.714;5.074;2023-06-14T03:47:25;101820.72;;;14.99;73.73
77311;BME280;66371;52.714;5.074;2023-06-14T03:49:53;101784.72;;;15.24;72.31
77311;BME280;66371;52.714;5.074;2023-06-14T03:55:01;101817.75;;;15.26;72.06
77311;BME280;66371;52.714;5.074;2023-06-14T03:57:26;101801.06;;;15.14;72.25
77311;BME280;66371;52.714;5.074;2023-06-14T04:00:00;101807.63;;;15.12;72.81
77311;BME280;66371;52.714;5.074;2023-06-14T04:02:27;101792.97;;;15.06;72.73
77311;BME280;66371;52.714;5.074;2023-06-14T04:05:00;101798.38;;;15.22;72.29
77311;BME280;66371;52.714;5.074;2023-06-14T04:07:31;101819.66;;;15.73;70.78
77311;BME280;66371;52.714;5.074;2023-06-14T04:10:07;101806.84;;;16.46;67.77
77311;BME280;66371;52.714;5.074;2023-06-14T04:12:42;101823.94;;;17.08;65.95
77311;BME280;66371;52.714;5.074;2023-06-14T04:15:10;101826.13;;;17.58;64.08
77311;BME280;66371;52.714;5.074;2023-06-14T04:20:36;101814.25;;;17.81;62.77
77311;BME280;66371;52.714;5.074;2023-06-14T04:23:14;101816.97;;;18.10;61.44
77311;BME280;66371;52.714;5.074;2023-06-14T04:25:41;101840.38;;;18.40;60.58
77311;BME280;66371;52.714;5.074;2023-06-14T04:28:14;101832.50;;;18.45;59.94
77311;BME280;66371;52.714;5.074;2023-06-14T04:30:46;101814.78;;;18.28;60.54
77311;BME280;66371;52.714;5.074;2023-06-14T04:33:16;101842.72;;;17.92;61.96
77311;BME280;66371;52.714;5.074;2023-06-14T04:35:42;101840.16;;;17.30;64.25
77311;BME280;66371;52.714;5.074;2023-06-14T04:38:12;101847.41;;;17.07;65.28
77311;BME280;66371;52.714;5.074;2023-06-14T04:40:49;101827.28;;;16.79;66.16
77311;BME280;66371;52.714;5.074;2023-06-14T04:43:18;101855.75;;;16.90;66.80
77311;BME280;66371;52.714;5.074;2023-06-14T04:45:54;101836.06;;;16.81;67.41
77311;BME280;66371;52.714;5.074;2023-06-14T04:48:25;101837.59;;;16.76;66.80
77311;BME280;66371;52.714;5.074;2023-06-14T04:50:53;101861.69;;;16.85;67.39
77311;BME280;66371;52.714;5.074;2023-06-14T04:53:24;101860.78;;;16.93;66.73
77311;BME280;66371;52.714;5.074;2023-06-14T04:56:02;101848.81;;;16.95;66.38
77311;BME280;66371;52.714;5.074;2023-06-14T04:58:29;101836.66;;;16.91;66.37
77311;BME280;66371;52.714;5.074;2023-06-14T05:01:02;101845.41;;;17.01;66.56
77311;BME280;66371;52.714;5.074;2023-06-14T05:03:29;101866.56;;;17.20;66.33
77311;BME280;66371;52.714;5.074;2023-06-14T05:05:55;101866.81;;;17.33;66.61
77311;BME280;66371;52.714;5.074;2023-06-14T05:08:23;101858.34;;;17.44;65.89
77311;BME280;66371;52.714;5.074;2023-06-14T05:10:52;101849.41;;;17.59;66.05
77311;BME280;66371;52.714;5.074;2023-06-14T05:13:21;101843.28;;;17.65;65.48
77311;BME280;66371;52.714;5.074;2023-06-14T05:15:49;101865.84;;;17.80;65.33
77311;BME280;66371;52.714;5.074;2023-06-14T05:21:13;101846.81;;;17.88;64.97
77311;BME280;66371;52.714;5.074;2023-06-14T05:23:43;101858.03;;;17.99;65.26
77311;BME280;66371;52.714;5.074;2023-06-14T05:26:13;101849.81;;;18.07;64.58
77311;BME280;66371;52.714;5.074;2023-06-14T05:31:28;101867.50;;;18.18;64.34
77311;BME280;66371;52.714;5.074;2023-06-14T05:33:57;101857.91;;;18.30;63.98
77311;BME280;66371;52.714;5.074;2023-06-14T05:36:27;101858.16;;;18.35;63.61
77311;BME280;66371;52.714;5.074;2023-06-14T05:38:54;101845.38;;;18.29;63.30
77311;BME280;66371;52.714;5.074;2023-06-14T05:44:21;101864.53;;;18.56;62.50
77311;BME280;66371;52.714;5.074;2023-06-14T05:47:07;101848.41;;;18.63;62.34
77311;BME280;66371;52.714;5.074;2023-06-14T05:49:43;101871.94;;;18.77;62.21
77311;BME280;66371;52.714;5.074;2023-06-14T05:52:23;101851.63;;;18.73;61.85
77311;BME280;66371;52.714;5.074;2023-06-14T05:55:38;101868.16;;;18.92;61.88
77311;BME280;66371;52.714;5.074;2023-06-14T05:58:16;101860.19;;;18.91;61.49
77311;BME280;66371;52.714;5.074;2023-06-14T06:01:07;101860.97;;;18.85;61.90
77311;BME280;66371;52.714;5.074;2023-06-14T06:04:05;101878.78;;;19.08;61.79
77311;BME280;66371;52.714;5.074;2023-06-14T06:06:38;101865.41;;;19.07;61.24
77311;BME280;66371;52.714;5.074;2023-06-14T06:09:12;101879.03;;;19.28;60.89
77311;BME280;66371;52.714;5.074;2023-06-14T06:12:01;101884.47;;;19.49;60.59
77311;BME280;66371;52.714;5.074;2023-06-14T06:14:46;101887.56;;;19.46;60.30
77311;BME280;66371;52.714;5.074;2023-06-14T06:17:20;101870.78;;;19.36;60.12
77311;BME280;66371;52.714;5.074;2023-06-14T06:19:47;101857.94;;;19.45;59.42
77311;BME280;66371;52.714;5.074;2023-06-14T06:22:27;101861.41;;;19.60;59.26
77311;BME280;66371;52.714;5.074;2023-06-14T06:24:56;101864.59;;;19.63;59.44
77311;BME280;66371;52.714;5.074;2023-06-14T06:27:25;101868.34;;;19.62;59.35
77311;BME280;66371;52.714;5.074;2023-06-14T06:29:53;101866.22;;;19.58;58.61
77311;BME280;66371;52.714;5.074;2023-06-14T06:32:22;101889.16;;;19.76;59.19
77311;BME280;66371;52.714;5.074;2023-06-14T06:34:51;101867.69;;;19.81;58.39
77311;BME280;66371;52.714;5.074;2023-06-14T06:37:27;101899.41;;;20.02;58.26
77311;BME280;66371;52.714;5.074;2023-06-14T06:40:02;101873.38;;;19.86;57.78
77311;BME280;66371;52.714;5.074;2023-06-14T06:42:53;101879.88;;;19.92;57.30
77311;BME280;66371;52.714;5.074;2023-06-14T06:45:51;101878.91;;;19.99;57.14
77311;BME280;66371;52.714;5.074;2023-06-14T06:48:20;101874.50;;;19.98;57.02
77311;BME280;66371;52.714;5.074;2023-06-14T06:51:02;101901.66;;;20.19;57.27
77311;BME280;66371;52.714;5.074;2023-06-14T06:53:29;101889.78;;;20.20;57.47
77311;BME280;66371;52.714;5.074;2023-06-14T06:56:00;101899.72;;;20.41;56.80
77311;BME280;66371;52.714;5.074;2023-06-14T06:58:27;101883.78;;;20.31;56.59
77311;BME280;66371;52.714;5.074;2023-06-14T07:00:59;101897.06;;;20.47;56.30
77311;BME280;66371;52.714;5.074;2023-06-14T07:03:25;101900.44;;;20.56;56.18
77311;BME280;66371;52.714;5.074;2023-06-14T07:06:02;101912.88;;;20.71;56.23
77311;BME280;66371;52.714;5.074;2023-06-14T07:08:31;101891.94;;;20.65;55.89
77311;BME280;66371;52.714;5.074;2023-06-14T07:11:05;101895.53;;;20.72;55.34
77311;BME280;66371;52.714;5.074;2023-06-14T07:14:01;101889.69;;;20.75;55.41
77311;BME280;66371;52.714;5.074;2023-06-14T07:16:42;101905.03;;;20.89;55.00
77311;BME280;66371;52.714;5.074;2023-06-14T07:19:34;101897.38;;;21.00;54.51
77311;BME280;66371;52.714;5.074;2023-06-14T07:22:05;101912.72;;;21.20;54.43
77311;BME280;66371;52.714;5.074;2023-06-14T07:27:50;101898.06;;;21.15;52.75
77311;BME280;66371;52.714;5.074;2023-06-14T07:30:21;101911.75;;;21.34;53.60
77311;BME280;66371;52.714;5.074;2023-06-14T07:33:18;101926.41;;;21.40;52.49
77311;BME280;66371;52.714;5.074;2023-06-14T07:36:03;101927.69;;;21.44;53.35
77311;BME280;66371;52.714;5.074;2023-06-14T07:38:38;101922.03;;;21.52;53.23
77311;BME280;66371;52.714;5.074;2023-06-14T07:44:45;101937.16;;;21.67;51.08
77311;BME280;66371;52.714;5.074;2023-06-14T07:47:15;101919.09;;;21.53;51.92
77311;BME280;66371;52.714;5.074;2023-06-14T07:49:59;101919.31;;;21.52;51.69
77311;BME280;66371;52.714;5.074;2023-06-14T07:52:56;101940.50;;;21.69;51.36
77311;BME280;66371;52.714;5.074;2023-06-14T07:55:25;101924.63;;;21.73;51.26
77311;BME280;66371;52.714;5.074;2023-06-14T07:58:14;101926.47;;;21.66;51.34
77311;BME280;66371;52.714;5.074;2023-06-14T08:01:00;101938.88;;;21.81;51.81
77311;BME280;66371;52.714;5.074;2023-06-14T08:03:58;101946.03;;;22.08;51.84
77311;BME280;66371;52.714;5.074;2023-06-14T08:06:30;101936.00;;;22.09;50.95
77311;BME280;66371;52.714;5.074;2023-06-14T08:09:00;101938.50;;;22.30;50.89
77311;BME280;66371;52.714;5.074;2023-06-14T08:11:29;101920.88;;;22.39;50.35
77311;BME280;66371;52.714;5.074;2023-06-14T08:14:36;101945.63;;;22.57;48.91
77311;BME280;66371;52.714;5.074;2023-06-14T08:17:07;101952.75;;;22.71;49.02
77311;BME280;66371;52.714;5.074;2023-06-14T08:19:41;101923.22;;;22.55;48.12
77311;BME280;66371;52.714;5.074;2023-06-14T08:22:13;101939.75;;;22.73;49.47
77311;BME280;66371;52.714;5.074;2023-06-14T08:24:49;101942.47;;;22.73;48.46
77311;BME280;66371;52.714;5.074;2023-06-14T08:27:20;101961.50;;;22.86;46.91
77311;BME280;66371;52.714;5.074;2023-06-14T08:29:48;101941.19;;;22.82;47.43
77311;BME280;66371;52.714;5.074;2023-06-14T08:32:20;101960.44;;;23.00;46.73
77311;BME280;66371;52.714;5.074;2023-06-14T08:35:10;101952.25;;;23.00;47.24
77311;BME280;66371;52.714;5.074;2023-06-14T08:37:43;101958.09;;;23.10;47.80
77311;BME280;66371;52.714;5.074;2023-06-14T08:40:23;101947.16;;;23.17;46.74
77311;BME280;66371;52.714;5.074;2023-06-14T08:42:53;101964.78;;;23.27;45.59
77311;BME280;66371;52.714;5.074;2023-06-14T08:45:21;101939.84;;;23.11;44.94
77311;BME280;66371;52.714;5.074;2023-06-14T08:47:55;101945.28;;;23.17;44.72
77311;BME280;66371;52.714;5.074;2023-06-14T08:50:25;101940.41;;;23.19;46.29
77311;BME280;66371;52.714;5.074;2023-06-14T08:53:02;101947.94;;;23.37;46.24
77311;BME280;66371;52.714;5.074;2023-06-14T08:55:30;101960.06;;;23.47;46.23
77311;BME280;66371;52.714;5.074;2023-06-14T08:57:58;101952.28;;;23.51;46.23
77311;BME280;66371;52.714;5.074;2023-06-14T09:00:26;101939.47;;;23.51;45.94
77311;BME280;66371;52.714;5.074;2023-06-14T09:03:03;101937.34;;;23.53;45.77
77311;BME280;66371;52.714;5.074;2023-06-14T09:05:29;101950.75;;;23.61;45.23
77311;BME280;66371;52.714;5.074;2023-06-14T09:08:05;101942.81;;;23.53;44.41
77311;BME280;66371;52.714;5.074;2023-06-14T09:10:32;101953.31;;;23.56;44.28
77311;BME280;66371;52.714;5.074;2023-06-14T09:13:11;101948.69;;;23.57;44.38
77311;BME280;66371;52.714;5.074;2023-06-14T09:15:48;101962.91;;;23.65;44.43
77311;BME280;66371;52.714;5.074;2023-06-14T09:18:43;101959.94;;;23.73;42.68
77311;BME280;66371;52.714;5.074;2023-06-14T09:21:15;101959.09;;;23.73;43.20
77311;BME280;66371;52.714;5.074;2023-06-14T09:23:45;101945.91;;;23.63;43.72
77311;BME280;66371;52.714;5.074;2023-06-14T09:26:17;101963.50;;;23.74;43.90
77311;BME280;66371;52.714;5.074;2023-06-14T09:29:04;101953.22;;;23.69;42.88
77311;BME280;66371;52.714;5.074;2023-06-14T09:32:02;101970.84;;;23.73;43.65
77311;BME280;66371;52.714;5.074;2023-06-14T09:34:56;101950.31;;;23.64;43.35
77311;BME280;66371;52.714;5.074;2023-06-14T09:37:31;101958.25;;;23.72;43.19
77311;BME280;66371;52.714;5.074;2023-06-14T09:39:58;101949.03;;;23.67;42.74
77311;BME280;66371;52.714;5.074;2023-06-14T09:42:26;101961.31;;;23.89;43.32
77311;BME280;66371;52.714;5.074;2023-06-14T09:45:08;101962.53;;;23.99;43.52
77311;BME280;66371;52.714;5.074;2023-06-14T09:47:38;101966.47;;;24.03;43.70
77311;BME280;66371;52.714;5.074;2023-06-14T09:50:06;101960.22;;;23.96;43.24
77311;BME280;66371;52.714;5.074;2023-06-14T09:52:35;101954.25;;;24.06;43.44
77311;BME280;66371;52.714;5.074;2023-06-14T09:55:10;101954.84;;;24.14;43.03
77311;BME280;66371;52.714;5.074;2023-06-14T09:57:42;101974.41;;;24.11;42.72
77311;BME280;66371;52.714;5.074;2023-06-14T10:00:26;101961.47;;;23.94;42.94
77311;BME280;66371;52.714;5.074;2023-06-14T10:02:54;101955.78;;;23.64;43.91
77311;BME280;66371;52.714;5.074;2023-06-14T10:05:31;101958.94;;;23.61;42.87
77311;BME280;66371;52.714;5.074;2023-06-14T10:08:19;101968.41;;;23.59;42.21
77311;BME280;66371;52.714;5.074;2023-06-14T10:10:57;101949.03;;;23.67;43.44
77311;BME280;66371;52.714;5.074;2023-06-14T10:19:34;101973.94;;;24.21;42.35
77311;BME280;66371;52.714;5.074;2023-06-14T10:22:16;101964.41;;;23.92;42.13
77311;BME280;66371;52.714;5.074;2023-06-14T10:24:48;101943.59;;;23.60;42.29
77311;BME280;66371;52.714;5.074;2023-06-14T10:27:22;101964.13;;;23.69;42.60
77311;BME280;66371;52.714;5.074;2023-06-14T10:30:17;101955.66;;;23.84;41.86
77311;BME280;66371;52.714;5.074;2023-06-14T10:33:07;101968.22;;;23.98;43.51
77311;BME280;66371;52.714;5.074;2023-06-14T10:35:46;101958.59;;;23.82;42.04
77311;BME280;66371;52.714;5.074;2023-06-14T10:38:19;101979.06;;;24.04;42.23
77311;BME280;66371;52.714;5.074;2023-06-14T10:40:56;101980.72;;;24.12;42.13
77311;BME280;66371;52.714;5.074;2023-06-14T10:43:31;101958.28;;;24.03;41.42
77311;BME280;66371;52.714;5.074;2023-06-14T10:46:33;101970.53;;;24.26;42.80
77311;BME280;66371;52.714;5.074;2023-06-14T10:49:36;101939.66;;;24.18;41.21
77311;BME280;66371;52.714;5.074;2023-06-14T10:52:50;101969.78;;;24.37;40.81
77311;BME280;66371;52.714;5.074;2023-06-14T10:59:05;101952.22;;;24.26;41.12
77311;BME280;66371;52.714;5.074;2023-06-14T11:01:41;101967.00;;;24.43;41.41
77311;BME280;66371;52.714;5.074;2023-06-14T11:04:11;101961.94;;;24.47;40.66
77311;BME280;66371;52.714;5.074;2023-06-14T11:07:08;101964.88;;;24.45;40.66
77311;BME280;66371;52.714;5.074;2023-06-14T11:09:50;101968.09;;;24.60;41.57
77311;BME280;66371;52.714;5.074;2023-06-14T11:12:19;101966.28;;;24.79;41.11
77311;BME280;66371;52.714;5.074;2023-06-14T11:14:46;101957.09;;;24.91;41.00
77311;BME280;66371;52.714;5.074;2023-06-14T11:17:13;101973.41;;;24.80;41.34
77311;BME280;66371;52.714;5.074;2023-06-14T11:19:38;101962.25;;;24.81;41.57
77311;BME280;66371;52.714;5.074;2023-06-14T11:22:04;101958.88;;;24.79;41.38
77311;BME280;66371;52.714;5.074;2023-06-14T11:24:29;101966.53;;;24.46;42.09
77311;BME280;66371;52.714;5.074;2023-06-14T11:26:55;101966.88;;;24.07;39.42
77311;BME280;66371;52.714;5.074;2023-06-14T11:29:21;101962.13;;;23.96;40.31
77311;BME280;66371;52.714;5.074;2023-06-14T11:31:47;101963.66;;;24.17;41.43
77311;BME280;66371;52.714;5.074;2023-06-14T11:34:12;101962.41;;;24.37;41.38
77311;BME280;66371;52.714;5.074;2023-06-14T11:36:38;101955.00;;;24.44;42.02
77311;BME280;66371;52.714;5.074;2023-06-14T11:39:05;101957.63;;;24.57;42.03
77311;BME280;66371;52.714;5.074;2023-06-14T11:41:40;101952.38;;;24.80;42.10
77311;BME280;66371;52.714;5.074;2023-06-14T11:44:07;101951.75;;;24.96;41.51
77311;BME280;66371;52.714;5.074;2023-06-14T11:46:32;101955.63;;;25.07;41.12
77311;BME280;66371;52.714;5.074;2023-06-14T11:48:58;101955.03;;;25.05;41.43
77311;BME280;66371;52.714;5.074;2023-06-14T11:51:24;101950.16;;;25.07;39.88
77311;BME280;66371;52.714;5.074;2023-06-14T11:53:50;101947.28;;;25.02;39.15
77311;BME280;66371;52.714;5.074;2023-06-14T11:56:16;101949.25;;;24.95;39.26
77311;BME280;66371;52.714;5.074;2023-06-14T11:58:45;101942.56;;;24.91;38.69
77311;BME280;66371;52.714;5.074;2023-06-14T12:01:15;101948.78;;;24.80;38.95
77311;BME280;66371;52.714;5.074;2023-06-14T12:03:47;101952.50;;;24.67;39.47
77311;BME280;66371;52.714;5.074;2023-06-14T12:06:13;101949.00;;;24.78;39.71
77311;BME280;66371;52.714;5.074;2023-06-14T12:08:40;101943.78;;;24.77;39.65
77311;BME280;66371;52.714;5.074;2023-06-14T12:11:14;101950.53;;;24.50;38.27
77311;BME280;66371;52.714;5.074;2023-06-14T12:13:41;101951.88;;;24.41;40.11
77311;BME280;66371;52.714;5.074;2023-06-14T12:16:07;101940.16;;;24.34;39.46
77311;BME280;66371;52.714;5.074;2023-06-14T12:18:38;101943.25;;;24.44;40.23
77311;BME280;66371;52.714;5.074;2023-06-14T12:21:08;101954.88;;;24.57;40.19
77311;BME280;66371;52.714;5.074;2023-06-14T12:23:49;101947.88;;;24.68;39.91
77311;BME280;66371;52.714;5.074;2023-06-14T12:26:18;101947.34;;;24.77;39.66
77311;BME280;66371;52.714;5.074;2023-06-14T12:28:45;101951.34;;;24.75;39.71
77311;BME280;66371;52.714;5.074;2023-06-14T12:31:12;101951.81;;;24.47;39.33
77311;BME280;66371;52.714;5.074;2023-06-14T12:33:38;101950.88;;;24.10;38.72
77311;BME280;66371;52.714;5.074;2023-06-14T12:36:04;101951.00;;;24.22;39.56
77311;BME280;66371;52.714;5.074;2023-06-14T12:38:32;101953.69;;;24.29;39.71
77311;BME280;66371;52.714;5.074;2023-06-14T12:40:57;101956.94;;;24.62;40.14
77311;BME280;66371;52.714;5.074;2023-06-14T12:43:24;101954.09;;;24.75;39.50
77311;BME280;66371;52.714;5.074;2023-06-14T12:45:50;101943.88;;;24.64;38.05
77311;BME280;66371;52.714;5.074;2023-06-14T12:48:15;101948.56;;;24.57;39.42
77311;BME280;66371;52.714;5.074;2023-06-14T12:50:41;101935.53;;;24.34;38.41
77311;BME280;66371;52.714;5.074;2023-06-14T12:53:07;101944.69;;;24.22;38.59
77311;BME280;66371;52.714;5.074;2023-06-14T12:55:32;101950.72;;;24.30;38.72
77311;BME280;66371;52.714;5.074;2023-06-14T12:57:58;101935.00;;;23.94;39.40
77311;BME280;66371;52.714;5.074;2023-06-14T13:00:23;101942.84;;;24.15;40.12
77311;BME280;66371;52.714;5.074;2023-06-14T13:02:51;101945.25;;;24.30;39.74
77311;BME280;66371;52.714;5.074;2023-06-14T13:05:17;101938.94;;;24.54;41.35
77311;BME280;66371;52.714;5.074;2023-06-14T13:07:42;101939.88;;;24.42;39.64
77311;BME280;66371;52.714;5.074;2023-06-14T13:10:08;101940.09;;;24.65;41.45
77311;BME280;66371;52.714;5.074;2023-06-14T13:12:33;101940.19;;;24.76;39.81
77311;BME280;66371;52.714;5.074;2023-06-14T13:14:59;101941.78;;;24.66;38.79
77311;BME280;66371;52.714;5.074;2023-06-14T13:17:24;101947.16;;;24.30;37.22
77311;BME280;66371;52.714;5.074;2023-06-14T13:19:50;101936.66;;;24.27;38.21
77311;BME280;66371;52.714;5.074;2023-06-14T13:22:15;101949.88;;;24.54;40.03
77311;BME280;66371;52.714;5.074;2023-06-14T13:24:40;101937.84;;;24.80;38.44
77311;BME280;66371;52.714;5.074;2023-06-14T13:27:06;101939.72;;;24.79;38.52
77311;BME280;66371;52.714;5.074;2023-06-14T13:29:32;101945.38;;;24.84;39.06
77311;BME280;66371;52.714;5.074;2023-06-14T13:31:58;101944.47;;;24.90;38.45
77311;BME280;66371;52.714;5.074;2023-06-14T13:34:24;101944.41;;;24.97;38.54
77311;BME280;66371;52.714;5.074;2023-06-14T13:36:49;101951.53;;;24.80;38.73
77311;BME280;66371;52.714;5.074;2023-06-14T13:39:15;101937.56;;;24.88;39.00
77311;BME280;66371;52.714;5.074;2023-06-14T13:41:41;101930.56;;;24.74;37.99
77311;BME280;66371;52.714;5.074;2023-06-14T13:44:06;101934.91;;;24.57;37.82
77311;BME280;66371;52.714;5.074;2023-06-14T13:46:31;101942.97;;;24.52;37.25
77311;BME280;66371;52.714;5.074;2023-06-14T13:48:57;101950.03;;;24.59;38.69
77311;BME280;66371;52.714;5.074;2023-06-14T13:51:23;101946.81;;;24.87;37.74